createdAt,value
2023-01-28T00:00:37.548Z,77.49
2023-01-28T00:03:03.967Z,77.73
2023-01-28T00:05:30.363Z,77.38
2023-01-28T00:07:57.860Z,78.00
2023-01-28T00:10:24.226Z,78.17
2023-01-28T00:12:51.181Z,89.96
2023-01-28T00:15:17.734Z,91.86
2023-01-28T00:17:44.185Z,93.65
2023-01-28T00:20:10.996Z,93.76
2023-01-28T00:22:37.556Z,95.37
2023-01-28T00:25:04.111Z,96.58
2023-01-28T00:27:31.202Z,96.94
2023-01-28T00:29:57.576Z,100.00
2023-01-28T00:32:23.971Z,100.00
2023-01-28T00:34:50.343Z,99.89
2023-01-28T00:37:16.982Z,100.00
2023-01-28T00:39:43.359Z,100.00
2023-01-28T00:42:09.912Z,100.00
2023-01-28T00:44:36.520Z,100.00
2023-01-28T00:47:03.085Z,100.00
2023-01-28T00:49:29.497Z,96.68
2023-01-28T00:51:56.074Z,90.62
2023-01-28T00:54:22.432Z,88.31
2023-01-28T00:56:49.025Z,84.20
2023-01-28T00:59:15.456Z,81.84
2023-01-28T01:01:42.037Z,80.63
2023-01-28T01:04:08.400Z,80.15
2023-01-28T01:06:36.530Z,80.81
2023-01-28T01:09:05.667Z,79.99
2023-01-28T01:11:34.104Z,76.95
2023-01-28T01:14:01.033Z,75.98
2023-01-28T01:16:28.914Z,76.17
2023-01-28T01:18:55.523Z,75.04
2023-01-28T01:21:24.041Z,74.83
2023-01-28T01:23:50.912Z,73.37
2023-01-28T01:26:17.676Z,74.26
2023-01-28T01:28:44.049Z,71.87
2023-01-28T01:31:13.908Z,72.24
2023-01-28T01:33:41.372Z,73.89
2023-01-28T01:36:08.404Z,71.67
2023-01-28T01:38:36.955Z,72.38
2023-01-28T01:41:03.783Z,71.00
2023-01-28T01:43:53.254Z,71.82
2023-01-28T01:46:32.201Z,73.10
2023-01-28T01:49:00.599Z,72.19
2023-01-28T01:51:29.914Z,70.63
2023-01-28T01:53:56.270Z,71.91
2023-01-28T01:56:23.900Z,71.43
2023-01-28T01:58:50.565Z,70.57
2023-01-28T02:01:19.385Z,70.05
2023-01-28T02:04:03.336Z,70.51
2023-01-28T02:06:29.912Z,68.79
2023-01-28T02:08:56.451Z,69.01
2023-01-28T02:11:25.476Z,68.87
2023-01-28T02:13:52.663Z,69.75
2023-01-28T02:16:19.068Z,68.70
2023-01-28T02:18:45.462Z,67.08
2023-01-28T02:21:47.407Z,68.42
2023-01-28T02:24:51.170Z,66.95
2023-01-28T02:27:34.697Z,68.24
2023-01-28T02:30:16.676Z,68.34
2023-01-28T02:32:46.110Z,66.62
2023-01-28T02:35:22.354Z,67.87
2023-01-28T02:38:12.710Z,66.26
2023-01-28T02:40:59.812Z,66.39
2023-01-28T02:43:42.221Z,66.25
2023-01-28T02:46:39.596Z,65.00
2023-01-28T02:49:09.654Z,66.13
2023-01-28T02:51:41.965Z,66.45
2023-01-28T02:54:13.249Z,65.36
2023-01-28T02:56:42.858Z,64.43
2023-01-28T02:59:37.018Z,64.76
2023-01-28T03:02:28.348Z,64.18
2023-01-28T03:05:03.265Z,63.79
2023-01-28T03:07:29.950Z,65.17
2023-01-28T03:09:58.915Z,66.17
2023-01-28T03:12:44.960Z,66.59
2023-01-28T03:15:43.617Z,66.68
2023-01-28T03:18:34.523Z,67.19
2023-01-28T03:21:26.622Z,67.25
2023-01-28T03:24:18.778Z,65.57
2023-01-28T03:27:12.989Z,64.52
2023-01-28T03:29:57.858Z,65.60
2023-01-28T03:32:43.160Z,61.83
2023-01-28T03:35:28.222Z,61.22
2023-01-28T03:37:54.716Z,61.22
2023-01-28T03:40:21.081Z,62.04
2023-01-28T03:42:48.166Z,62.30
2023-01-28T03:45:14.992Z,62.09
2023-01-28T03:47:41.746Z,61.06
2023-01-28T03:50:08.794Z,61.09
2023-01-28T03:52:35.280Z,60.94
2023-01-28T03:55:01.701Z,61.72
2023-01-28T03:57:28.097Z,60.94
2023-01-28T03:59:54.700Z,61.66
2023-01-28T04:02:21.831Z,62.13
2023-01-28T04:04:50.004Z,59.75
2023-01-28T04:07:16.541Z,57.43
2023-01-28T04:09:43.434Z,60.00
2023-01-28T04:12:10.709Z,60.88
2023-01-28T04:14:37.308Z,60.36
2023-01-28T04:17:03.650Z,59.68
2023-01-28T04:19:31.720Z,59.62
2023-01-28T04:21:58.230Z,60.02
2023-01-28T04:24:24.700Z,59.85
2023-01-28T04:26:51.135Z,57.74
2023-01-28T04:29:17.523Z,59.81
2023-01-28T04:31:44.238Z,60.83
2023-01-28T04:34:10.702Z,59.74
2023-01-28T04:36:37.418Z,61.10
2023-01-28T04:39:03.840Z,63.92
2023-01-28T04:41:30.221Z,64.34
2023-01-28T04:43:56.590Z,66.72
2023-01-28T04:46:22.973Z,74.09
2023-01-28T04:48:49.355Z,86.25
2023-01-28T04:51:15.719Z,91.79
2023-01-28T04:53:42.105Z,92.35
2023-01-28T04:56:08.514Z,90.56
2023-01-28T04:58:34.857Z,88.12
2023-01-28T05:01:01.355Z,83.54
2023-01-28T05:03:27.850Z,81.22
2023-01-28T05:05:54.237Z,74.47
2023-01-28T05:08:20.832Z,72.92
2023-01-28T05:10:47.202Z,74.37
2023-01-28T05:13:14.416Z,73.15
2023-01-28T05:15:40.884Z,75.42
2023-01-28T05:18:07.328Z,71.79
2023-01-28T05:20:33.704Z,67.31
2023-01-28T05:23:00.173Z,67.20
2023-01-28T05:25:27.539Z,67.09
2023-01-28T05:27:54.710Z,58.60
2023-01-28T05:30:21.262Z,67.16
2023-01-28T05:32:47.800Z,81.48
2023-01-28T05:35:14.659Z,80.64
2023-01-28T05:37:41.364Z,81.72
2023-01-28T05:40:08.432Z,86.37
2023-01-28T05:42:34.770Z,83.54
2023-01-28T05:45:03.657Z,86.10
2023-01-28T05:47:30.071Z,90.04
2023-01-28T05:49:56.718Z,100.00
2023-01-28T05:52:23.139Z,100.00
2023-01-28T05:54:49.551Z,100.00
2023-01-28T05:57:15.888Z,100.00
2023-01-28T05:59:42.293Z,100.00
2023-01-28T06:02:08.755Z,100.00
2023-01-28T06:04:35.200Z,100.00
2023-01-28T06:07:01.552Z,100.00
2023-01-28T06:09:27.916Z,100.00
2023-01-28T06:11:54.333Z,100.00
2023-01-28T06:14:20.699Z,100.00
2023-01-28T06:16:47.098Z,100.00
2023-01-28T06:19:13.464Z,100.00
2023-01-28T06:21:39.868Z,100.00
2023-01-28T06:24:06.307Z,86.27
2023-01-28T06:26:32.885Z,85.83
2023-01-28T06:28:59.237Z,74.81
2023-01-28T06:31:25.614Z,71.48
2023-01-28T06:33:52.213Z,72.02
2023-01-28T06:36:18.554Z,72.31
2023-01-28T06:38:44.922Z,77.02
2023-01-28T06:41:11.520Z,76.61
2023-01-28T06:43:37.862Z,76.77
2023-01-28T06:46:04.374Z,77.41
2023-01-28T06:48:30.960Z,70.79
2023-01-28T06:50:57.396Z,50.89
2023-01-28T06:53:23.756Z,49.71
2023-01-28T06:55:50.157Z,51.38
2023-01-28T06:58:16.739Z,47.67
2023-01-28T07:00:43.162Z,52.34
2023-01-28T07:03:09.637Z,54.80
2023-01-28T07:05:36.007Z,49.91
2023-01-28T07:08:02.650Z,49.49
2023-01-28T07:10:29.324Z,51.15
2023-01-28T07:12:55.719Z,61.06
2023-01-28T07:15:22.098Z,72.05
2023-01-28T07:17:48.455Z,89.17
2023-01-28T07:20:15.807Z,100.00
2023-01-28T07:22:43.010Z,100.00
2023-01-28T07:25:09.909Z,100.00
2023-01-28T07:27:36.511Z,100.00
2023-01-28T07:30:03.547Z,92.45
2023-01-28T07:32:29.885Z,79.11
2023-01-28T07:34:56.313Z,75.23
2023-01-28T07:37:23.048Z,70.07
2023-01-28T07:39:49.460Z,66.94
2023-01-28T07:42:15.817Z,67.64
2023-01-28T07:44:42.235Z,74.47
2023-01-28T07:47:08.836Z,75.25
2023-01-28T07:49:35.285Z,71.08
2023-01-28T07:52:01.768Z,74.44
2023-01-28T07:54:29.210Z,79.60
2023-01-28T07:56:55.547Z,77.29
2023-01-28T07:59:22.783Z,79.38
2023-01-28T08:01:49.140Z,75.79
2023-01-28T08:04:15.603Z,72.49
2023-01-28T08:06:42.225Z,73.69
2023-01-28T08:09:08.676Z,79.32
2023-01-28T08:11:40.090Z,91.40
2023-01-28T08:14:06.708Z,97.89
2023-01-28T08:16:33.074Z,100.00
2023-01-28T08:18:59.464Z,100.00
2023-01-28T08:21:25.862Z,100.00
2023-01-28T08:23:52.307Z,100.00
2023-01-28T08:26:18.660Z,100.00
2023-01-28T08:28:45.085Z,100.00
2023-01-28T08:31:11.535Z,100.00
2023-01-28T08:33:37.986Z,100.00
2023-01-28T08:36:04.729Z,100.00
2023-01-28T08:38:31.128Z,100.00
2023-01-28T08:40:58.111Z,100.00
2023-01-28T08:43:24.549Z,100.00
2023-01-28T08:45:50.919Z,100.00
2023-01-28T08:48:18.421Z,100.00
2023-01-28T08:50:45.041Z,100.00
2023-01-28T08:53:13.392Z,100.00
2023-01-28T08:55:39.771Z,100.00
2023-01-28T08:58:07.581Z,100.00
2023-01-28T09:00:34.460Z,100.00
2023-01-28T09:03:00.842Z,100.00
2023-01-28T09:05:27.545Z,100.00
2023-01-28T09:07:53.957Z,100.00
2023-01-28T09:10:23.335Z,100.00
2023-01-28T09:12:49.726Z,100.00
2023-01-28T09:15:16.203Z,100.00
2023-01-28T09:17:42.561Z,100.00
2023-01-28T09:20:09.580Z,100.00
2023-01-28T09:22:36.107Z,100.00
2023-01-28T09:25:02.518Z,100.00
2023-01-28T09:27:28.873Z,100.00
2023-01-28T09:29:55.257Z,100.00
2023-01-28T09:32:21.644Z,100.00
2023-01-28T09:34:47.996Z,100.00
2023-01-28T09:37:14.870Z,100.00
2023-01-28T09:39:41.319Z,100.00
2023-01-28T09:42:27.956Z,100.00
2023-01-28T09:45:16.728Z,100.00
2023-01-28T09:47:44.504Z,100.00
2023-01-28T09:50:32.468Z,100.00
2023-01-28T09:53:11.130Z,100.00
2023-01-28T09:55:44.422Z,100.00
2023-01-28T09:58:15.997Z,100.00
2023-01-28T10:00:51.520Z,100.00
2023-01-28T10:03:22.465Z,100.00
2023-01-28T10:06:21.870Z,100.00
2023-01-28T10:08:52.334Z,100.00
2023-01-28T10:11:30.069Z,100.00
2023-01-28T10:14:01.592Z,100.00
2023-01-28T10:16:57.346Z,100.00
2023-01-28T10:19:28.763Z,100.00
2023-01-28T10:22:00.840Z,100.00
2023-01-28T10:24:34.178Z,100.00
2023-01-28T10:27:00.570Z,100.00
2023-01-28T10:29:32.910Z,100.00
2023-01-28T10:32:25.638Z,100.00
2023-01-28T10:34:52.112Z,100.00
2023-01-28T10:37:18.481Z,100.00
2023-01-28T10:39:45.031Z,100.00
2023-01-28T10:42:20.252Z,100.00
2023-01-28T10:44:46.621Z,100.00
2023-01-28T10:47:20.571Z,100.00
2023-01-28T10:49:49.505Z,100.00
2023-01-28T10:52:16.156Z,100.00
2023-01-28T10:54:42.758Z,100.00
2023-01-28T10:57:13.025Z,100.00
2023-01-28T10:59:42.761Z,100.00
2023-01-28T11:02:24.337Z,100.00
2023-01-28T11:05:01.464Z,100.00
2023-01-28T11:07:27.815Z,100.00
2023-01-28T11:09:54.185Z,100.00
2023-01-28T11:12:22.602Z,100.00
2023-01-28T11:14:56.924Z,100.00
2023-01-28T11:17:25.669Z,100.00
2023-01-28T11:19:53.810Z,100.00
2023-01-28T11:22:39.791Z,100.00
2023-01-28T11:25:17.301Z,100.00
2023-01-28T11:27:47.491Z,100.00
2023-01-28T11:30:31.153Z,100.00
2023-01-28T11:33:00.195Z,100.00
2023-01-28T11:35:30.169Z,100.00
2023-01-28T11:37:59.902Z,100.00
2023-01-28T11:40:26.723Z,100.00
2023-01-28T11:43:00.532Z,100.00
2023-01-28T11:46:05.840Z,100.00
2023-01-28T11:48:58.637Z,100.00
2023-01-28T11:51:31.050Z,100.00
2023-01-28T11:54:26.872Z,100.00
2023-01-28T11:57:15.018Z,100.00
2023-01-28T11:59:45.015Z,100.00
2023-01-28T12:02:24.944Z,100.00
2023-01-28T12:05:08.286Z,100.00
2023-01-28T12:08:04.498Z,100.00
2023-01-28T12:10:30.840Z,100.00
2023-01-28T12:13:24.031Z,100.00
2023-01-28T12:15:51.190Z,100.00
2023-01-28T12:18:51.583Z,100.00
2023-01-28T12:21:33.759Z,100.00
2023-01-28T12:24:24.777Z,100.00
2023-01-28T12:26:56.251Z,100.00
2023-01-28T12:29:32.083Z,100.00
2023-01-28T12:32:13.534Z,100.00
2023-01-28T12:34:40.085Z,100.00
2023-01-28T12:37:30.997Z,100.00
2023-01-28T12:40:12.632Z,100.00
2023-01-28T12:42:42.490Z,100.00
2023-01-28T12:45:37.408Z,100.00
2023-01-28T12:48:11.360Z,100.00
2023-01-28T12:50:45.374Z,100.00
2023-01-28T12:53:20.289Z,100.00
2023-01-28T12:55:54.864Z,100.00
2023-01-28T12:58:25.169Z,100.00
2023-01-28T13:00:53.383Z,100.00
2023-01-28T13:03:47.668Z,100.00
2023-01-28T13:06:18.044Z,100.00
2023-01-28T13:08:44.424Z,100.00
2023-01-28T13:11:16.048Z,100.00
2023-01-28T13:13:42.851Z,100.00
2023-01-28T13:16:10.227Z,100.00
2023-01-28T13:18:39.721Z,100.00
2023-01-28T13:21:25.059Z,100.00
2023-01-28T13:24:12.694Z,100.00
2023-01-28T13:26:46.095Z,100.00
2023-01-28T13:29:15.443Z,100.00
2023-01-28T13:31:43.486Z,100.00
2023-01-28T13:34:26.503Z,100.00
2023-01-28T13:36:53.070Z,100.00
2023-01-28T13:39:21.414Z,100.00
2023-01-28T13:41:52.828Z,100.00
2023-01-28T13:44:25.996Z,100.00
2023-01-28T13:46:53.488Z,100.00
2023-01-28T13:49:24.376Z,100.00
2023-01-28T13:51:58.874Z,100.00
2023-01-28T13:54:25.284Z,100.00
2023-01-28T13:57:00.973Z,100.00
2023-01-28T13:59:50.275Z,100.00
2023-01-28T14:02:19.648Z,100.00
2023-01-28T14:05:04.339Z,100.00
2023-01-28T14:07:58.602Z,100.00
2023-01-28T14:10:46.992Z,100.00
2023-01-28T14:13:28.643Z,100.00
2023-01-28T14:16:10.370Z,100.00
2023-01-28T14:18:38.640Z,100.00
2023-01-28T14:21:16.335Z,100.00
2023-01-28T14:23:51.234Z,100.00
2023-01-28T14:26:28.844Z,100.00
2023-01-28T14:29:18.651Z,100.00
2023-01-28T14:31:45.188Z,100.00
2023-01-28T14:34:31.157Z,100.00
2023-01-28T14:37:02.045Z,100.00
2023-01-28T14:39:30.050Z,100.00
2023-01-28T14:41:58.917Z,100.00
2023-01-28T14:44:35.278Z,100.00
2023-01-28T14:47:32.903Z,100.00
2023-01-28T14:50:11.222Z,100.00
2023-01-28T14:52:49.517Z,100.00
2023-01-28T14:55:44.912Z,100.00
2023-01-28T14:58:19.178Z,100.00
2023-01-28T15:00:53.823Z,100.00
2023-01-28T15:03:27.458Z,100.00
2023-01-28T15:06:07.542Z,100.00
2023-01-28T15:08:35.715Z,100.00
2023-01-28T15:11:02.084Z,100.00
2023-01-28T15:13:34.765Z,100.00
2023-01-28T15:16:01.724Z,100.00
2023-01-28T15:18:41.288Z,100.00
2023-01-28T15:21:07.645Z,100.00
2023-01-28T15:23:35.456Z,100.00
2023-01-28T15:26:20.143Z,100.00
2023-01-28T15:28:46.802Z,100.00
2023-01-28T15:31:19.292Z,100.00
2023-01-28T15:33:45.691Z,100.00
2023-01-28T15:36:12.035Z,100.00
2023-01-28T15:38:38.381Z,100.00
2023-01-28T15:41:05.100Z,100.00
2023-01-28T15:43:36.218Z,100.00
2023-01-28T15:46:02.630Z,100.00
2023-01-28T15:48:32.161Z,100.00
2023-01-28T15:51:02.678Z,100.00
2023-01-28T15:53:31.704Z,100.00
2023-01-28T15:56:11.675Z,100.00
2023-01-28T15:58:41.471Z,100.00
2023-01-28T16:01:07.932Z,100.00
2023-01-28T16:03:36.378Z,100.00
2023-01-28T16:06:04.184Z,100.00
2023-01-28T16:08:56.157Z,100.00
2023-01-28T16:11:27.794Z,100.00
2023-01-28T16:13:54.236Z,100.00
2023-01-28T16:16:32.513Z,100.00
2023-01-28T16:18:58.986Z,100.00
2023-01-28T16:21:27.732Z,100.00
2023-01-28T16:24:03.521Z,100.00
2023-01-28T16:26:31.323Z,100.00
2023-01-28T16:28:59.118Z,100.00
2023-01-28T16:31:25.593Z,100.00
2023-01-28T16:33:52.023Z,100.00
2023-01-28T16:36:21.213Z,100.00
2023-01-28T16:38:47.705Z,100.00
2023-01-28T16:41:16.048Z,100.00
2023-01-28T16:43:42.403Z,100.00
2023-01-28T16:46:11.511Z,100.00
2023-01-28T16:48:37.897Z,100.00
2023-01-28T16:51:04.596Z,100.00
2023-01-28T16:53:34.912Z,100.00
2023-01-28T16:56:01.484Z,100.00
2023-01-28T16:58:27.847Z,100.00
2023-01-28T17:00:54.594Z,100.00
2023-01-28T17:03:21.040Z,100.00
2023-01-28T17:05:47.407Z,100.00
2023-01-28T17:08:13.796Z,100.00
2023-01-28T17:10:40.167Z,100.00
2023-01-28T17:13:06.617Z,100.00
2023-01-28T17:15:35.283Z,100.00
2023-01-28T17:18:01.644Z,100.00
2023-01-28T17:20:28.069Z,100.00
2023-01-28T17:22:54.463Z,100.00
2023-01-28T17:25:20.881Z,100.00
2023-01-28T17:27:49.105Z,100.00
2023-01-28T17:30:19.263Z,100.00
2023-01-28T17:32:45.810Z,100.00
2023-01-28T17:35:12.276Z,100.00
2023-01-28T17:37:38.926Z,100.00
2023-01-28T17:40:05.930Z,100.00
2023-01-28T17:42:32.392Z,100.00
2023-01-28T17:45:02.976Z,100.00
2023-01-28T17:47:30.774Z,100.00
2023-01-28T17:49:57.805Z,100.00
2023-01-28T17:52:24.456Z,100.00
2023-01-28T17:54:50.851Z,100.00
2023-01-28T17:57:17.337Z,100.00
2023-01-28T17:59:43.767Z,100.00
2023-01-28T18:02:11.118Z,100.00
2023-01-28T18:04:40.998Z,100.00
2023-01-28T18:07:10.853Z,100.00
2023-01-28T18:09:41.393Z,100.00
2023-01-28T18:12:09.125Z,100.00
2023-01-28T18:14:35.774Z,100.00
2023-01-28T18:17:02.188Z,91.24
2023-01-28T18:19:28.697Z,80.05
2023-01-28T18:21:55.375Z,74.61
2023-01-28T18:24:26.504Z,73.76
2023-01-28T18:26:55.688Z,74.35
2023-01-28T18:29:24.045Z,75.50
2023-01-28T18:31:54.563Z,76.08
2023-01-28T18:34:21.822Z,74.07
2023-01-28T18:36:49.551Z,71.21
2023-01-28T18:39:19.794Z,71.01
2023-01-28T18:41:46.401Z,71.29
2023-01-28T18:44:13.403Z,70.50
2023-01-28T18:46:40.063Z,69.07
2023-01-28T18:49:06.438Z,69.80
2023-01-28T18:51:32.825Z,69.39
2023-01-28T18:54:00.031Z,68.69
2023-01-28T18:56:27.492Z,65.70
2023-01-28T18:59:01.738Z,63.82
2023-01-28T19:01:28.644Z,62.97
2023-01-28T19:03:55.622Z,61.07
2023-01-28T19:06:22.162Z,59.24
2023-01-28T19:08:56.151Z,60.80
2023-01-28T19:11:22.989Z,58.49
2023-01-28T19:13:49.549Z,57.50
2023-01-28T19:16:16.003Z,56.22
2023-01-28T19:18:42.442Z,47.13
2023-01-28T19:21:09.088Z,44.76
2023-01-28T19:23:49.243Z,42.65
2023-01-28T19:26:21.290Z,40.77
2023-01-28T19:28:49.207Z,38.63
2023-01-28T19:31:15.759Z,36.91
2023-01-28T19:33:43.448Z,27.01
2023-01-28T19:36:10.275Z,23.84
2023-01-28T19:38:36.695Z,23.12
2023-01-28T19:41:04.851Z,22.69
2023-01-28T19:43:31.647Z,22.12
2023-01-28T19:46:02.716Z,20.85
2023-01-28T19:48:29.497Z,19.23
2023-01-28T19:50:55.878Z,18.48
2023-01-28T19:53:22.253Z,17.29
2023-01-28T19:55:50.688Z,17.12
2023-01-28T19:58:18.466Z,18.28
2023-01-28T20:00:44.940Z,17.88
2023-01-28T20:03:12.663Z,17.83
2023-01-28T20:05:39.031Z,17.35
2023-01-28T20:08:05.426Z,16.65
2023-01-28T20:10:32.166Z,16.77
2023-01-28T20:12:58.557Z,17.13
2023-01-28T20:15:25.219Z,18.06
2023-01-28T20:17:51.769Z,16.93
2023-01-28T20:20:18.220Z,16.71
2023-01-28T20:22:44.760Z,17.31
2023-01-28T20:25:11.192Z,18.01
2023-01-28T20:27:37.539Z,18.74
2023-01-28T20:30:04.311Z,19.33
2023-01-28T20:32:30.830Z,19.75
2023-01-28T20:34:57.347Z,20.29
2023-01-28T20:37:23.697Z,20.05
2023-01-28T20:39:50.299Z,19.73
2023-01-28T20:42:16.675Z,18.10
2023-01-28T20:44:43.029Z,17.30
2023-01-28T20:47:09.556Z,16.91
2023-01-28T20:49:35.927Z,19.07
2023-01-28T20:52:02.493Z,16.79
2023-01-28T20:54:29.216Z,16.25
2023-01-28T20:56:57.233Z,16.33
2023-01-28T20:59:24.061Z,16.46
2023-01-28T21:01:50.776Z,15.95
2023-01-28T21:04:17.278Z,12.17
2023-01-28T21:06:43.637Z,11.44
2023-01-28T21:09:10.410Z,9.85
2023-01-28T21:11:36.779Z,8.66
2023-01-28T21:14:03.164Z,8.43
2023-01-28T21:16:29.958Z,8.07
2023-01-28T21:18:56.319Z,6.59
2023-01-28T21:21:24.462Z,6.24
2023-01-28T21:23:51.092Z,5.46
2023-01-28T21:26:17.491Z,4.32
2023-01-28T21:28:44.198Z,3.72
2023-01-28T21:31:12.144Z,2.74
2023-01-28T21:33:38.529Z,1.73
2023-01-28T21:36:12.447Z,0.87
2023-01-28T21:38:39.107Z,0.00
2023-01-28T21:41:05.562Z,0.00
2023-01-28T21:43:31.981Z,0.00
2023-01-28T21:45:59.357Z,0.00
2023-01-28T21:48:25.823Z,0.00
2023-01-28T21:51:11.054Z,0.00
2023-01-28T21:53:41.126Z,0.00
2023-01-28T21:56:08.297Z,0.00
2023-01-28T21:58:54.452Z,0.00
2023-01-28T22:01:21.036Z,0.00
2023-01-28T22:03:47.446Z,0.00
2023-01-28T22:06:13.908Z,0.00
2023-01-28T22:08:40.275Z,0.00
2023-01-28T22:11:07.274Z,0.00
2023-01-28T22:13:34.080Z,0.00
2023-01-28T22:16:00.595Z,0.00
2023-01-28T22:18:27.060Z,0.00
2023-01-28T22:21:00.542Z,0.00
2023-01-28T22:23:26.975Z,0.00
2023-01-28T22:25:54.568Z,0.00
2023-01-28T22:28:21.189Z,0.00
2023-01-28T22:30:47.614Z,0.00
2023-01-28T22:33:14.134Z,0.00
2023-01-28T22:35:40.504Z,0.00
2023-01-28T22:38:06.855Z,0.00
2023-01-28T22:40:33.295Z,0.00
2023-01-28T22:42:59.826Z,0.00
2023-01-28T22:45:26.178Z,0.00
2023-01-28T22:47:52.568Z,0.00
2023-01-28T22:50:19.600Z,0.00
2023-01-28T22:52:49.184Z,0.00
2023-01-28T22:55:15.724Z,0.00
2023-01-28T22:57:42.300Z,0.00
2023-01-28T23:00:11.810Z,0.00
2023-01-28T23:02:38.621Z,0.00
2023-01-28T23:05:06.005Z,0.00
2023-01-28T23:07:32.433Z,0.00
2023-01-28T23:09:58.888Z,0.00
2023-01-28T23:12:25.289Z,0.00
2023-01-28T23:15:10.388Z,0.00
2023-01-28T23:17:55.133Z,0.00
2023-01-28T23:20:39.914Z,0.00
2023-01-28T23:23:32.586Z,0.00
2023-01-28T23:25:58.962Z,0.00
2023-01-28T23:28:25.319Z,0.00
2023-01-28T23:30:51.946Z,0.00
2023-01-28T23:33:18.416Z,0.00
2023-01-28T23:35:44.761Z,0.00
2023-01-28T23:38:11.129Z,0.00
2023-01-28T23:40:37.738Z,0.00
2023-01-28T23:43:05.596Z,0.00
2023-01-28T23:45:32.176Z,0.00
2023-01-28T23:47:58.581Z,0.00
2023-01-28T23:50:24.959Z,0.00
2023-01-28T23:52:51.343Z,0.00
2023-01-28T23:55:17.818Z,0.00
2023-01-28T23:57:44.211Z,0.00
